Latest Coastal Weather Observations for Karratha

IDW60701

Issued at 9:02 pm WST Sunday 26 April 2015 (issued every 10 minutes, with the page automatically refreshed every 10 minutes)

About coastal observations | Map of coastal stations | Coastal observations for WA | Marine services | Other Formats
Station Details ID: 004083 Name: KARRATHA AERO Lat: -20.71 Lon: 116.77 Height: 5.3 m
Data from the previous 72 hours. | See also: Recent months at Karratha
Date/Time
WST
Temp

°C
Wind Pressure Rain
since 9am
mm
Weather Cloud Vis
km
Sea
Height
m
Swell
Dir
 
Speed
knots
Gust
knots
hPa Trend Height
m
Period
s
Dir
26/09:00pm 27.6 ESE 10 11 1015.7 - 0.0 - Cloudy 10 - - - -
26/08:30pm 27.4 ESE 9 12 1015.7 - 0.0 - Cloudy 10 - - - -
26/08:00pm 26.1 E 8 9 1015.6 - 0.0 - Cloudy 10 - - - -
26/07:30pm 26.1 E 8 10 1015.4 - 0.0 - Cloudy 10 - - - -
26/07:00pm 26.5 E 8 9 1015.1 - 0.0 - Cloudy 10 - - - -
26/06:30pm 25.9 E 6 7 1014.8 - 0.0 - Cloudy 10 - - - -
26/06:00pm 26.2 E 7 9 1014.5 - 0.0 - Cloudy 10 - - - -
26/05:30pm 26.3 ENE 7 10 1014.2 - 0.0 - Cloudy 10 - - - -
26/05:00pm 26.8 ENE 8 11 1013.8 - 0.0 - Cloudy 10 - - - -
26/04:30pm 27.2 ENE 9 11 1013.6 - 0.0 - Cloudy 10 - - - -
26/04:00pm 27.4 ENE 11 13 1013.3 - 0.0 - Cloudy 10 - - - -
26/03:30pm 27.7 ENE 12 15 1013.3 - 0.0 - Cloudy 10 - - - -
26/03:00pm 27.8 ENE 13 15 1013.3 - 0.0 - Mostly cloudy 10 - - - -
26/02:30pm 29.6 ENE 15 19 1013.3 - 0.0 - Partly cloudy 10 - - - -
26/02:00pm 29.0 ENE 16 21 1013.3 - 0.0 - - 10 - - - -
26/01:30pm 30.0 ENE 16 20 1013.6 - 0.0 - Partly cloudy 10 - - - -
26/01:00pm 29.0 ENE 15 18 1013.9 - 0.0 - Partly cloudy 10 - - - -
26/12:30pm 29.2 E 18 22 1014.3 - 0.0 - Partly cloudy 10 - - - -
26/12:00pm 28.8 E 19 23 1014.8 - 0.0 - Mostly cloudy 10 - - - -
26/11:30am 28.3 E 19 25 1015.0 - 0.0 - - 10 - - - -
26/11:00am 27.2 E 20 25 1015.3 - 0.0 - Partly cloudy 10 - - - -
26/10:30am 27.2 E 19 24 1015.6 - 0.0 - - 10 - - - -
26/10:00am 26.5 E 20 24 1015.7 - 0.0 - Partly cloudy 10 - - - -
26/09:30am 25.6 E 19 25 1016.0 - 0.0 - Partly cloudy 10 - - - -
26/09:00am 25.1 E 19 26 1015.9 - 0.0 - Cloudy 10 - - - -
26/08:30am 25.0 E 19 27 1015.6 - 0.0 - Partly cloudy 10 - - - -
26/08:00am 24.7 E 18 23 1015.4 - 0.0 - Partly cloudy 10 - - - -
26/07:30am 24.0 E 16 20 1014.8 - 0.0 - - 10 - - - -
26/07:00am 23.5 E 14 18 1014.7 - 0.0 - - 10 - - - -
26/06:30am 24.6 E 16 21 1014.2 - 0.0 - - 10 - - - -
26/06:00am 25.1 ESE 16 21 1014.3 - 0.0 - Cloudy 10 - - - -
26/05:30am 25.2 ESE 14 18 1014.0 - 0.0 - Partly cloudy 10 - - - -
26/05:00am 25.2 ESE 16 19 1013.6 - 0.0 - - 10 - - - -
26/04:30am 25.4 ESE 16 20 1013.3 - 0.0 - - 10 - - - -
26/04:00am 25.5 ESE 15 19 1013.4 - 0.0 - - 10 - - - -
26/03:30am 25.8 ESE 14 19 1013.4 - 0.0 - Partly cloudy 10 - - - -
26/03:00am 25.8 ESE 14 18 1013.5 - 0.0 - Cloudy 10 - - - -
26/02:30am 25.9 ESE 14 19 1013.4 - 0.0 - Partly cloudy 10 - - - -
26/02:00am 26.2 ESE 17 21 1013.3 - 0.0 - Partly cloudy 10 - - - -
26/01:30am 26.1 ESE 15 19 1013.6 - 0.0 - Partly cloudy 10 - - - -
26/01:00am 26.3 ESE 14 18 1013.9 - 0.0 - Cloudy 10 - - - -
26/12:30am 25.3 E 11 13 1014.2 - 0.0 - Partly cloudy 10 - - - -
26/12:00am 25.0 E 11 13 1014.3 - 0.0 - Mostly cloudy 10 - - - -
 
Date/Time
WST
Temp

°C
Wind Pressure Rain
since 9am
mm
Weather Cloud Vis
km
Sea
Height
m
Swell
Dir
 
Speed
knots
Gust
knots
hPa Trend Height
m
Period
s
Dir
25/11:30pm 25.1 E 11 13 1014.5 - 0.0 - Cloudy 10 - - - -
25/11:00pm 24.6 E 9 11 1014.6 - 0.0 - Partly cloudy 10 - - - -
25/10:30pm 24.3 ENE 8 10 1014.8 - 0.0 - Partly cloudy 10 - - - -
25/10:00pm 24.7 E 9 11 1014.8 - 0.0 - Partly cloudy 10 - - - -
25/09:30pm 24.9 E 9 10 1014.8 - 0.0 - Partly cloudy 10 - - - -
25/09:00pm 25.3 E 10 11 1014.8 - 0.0 - Cloudy 10 - - - -
25/08:30pm 25.5 E 9 11 1014.6 - 0.0 - Partly cloudy 10 - - - -
25/08:00pm 25.4 ENE 9 10 1014.5 - 0.0 - Partly cloudy 10 - - - -
25/07:30pm 25.9 E 10 11 1014.1 - 0.0 - - 10 - - - -
25/07:00pm 25.8 E 9 11 1013.6 - 0.0 - Partly cloudy 10 - - - -
25/06:30pm 26.0 E 9 11 1013.2 - 0.0 - Partly cloudy 10 - - - -
25/06:00pm 26.0 ENE 11 13 1012.9 - 0.0 - Cloudy 10 - - - -
25/05:30pm 26.6 ENE 11 15 1012.6 - 0.0 - - 10 - - - -
25/05:00pm 27.2 ENE 13 16 1012.4 - 0.0 - Partly cloudy 10 - - - -
25/04:30pm 27.6 ENE 13 15 1012.3 - 0.0 - - 10 - - - -
25/04:00pm 27.7 ENE 13 16 1011.9 - 0.0 - Partly cloudy 10 - - - -
25/03:30pm 29.0 ENE 15 20 1011.9 - 0.0 - Partly cloudy 10 - - - -
25/03:00pm 28.4 ENE 15 19 1011.9 - 0.0 - Partly cloudy 10 - - - -
25/02:30pm 28.8 ENE 15 21 1011.8 - 0.0 - - 10 - - - -
25/02:00pm 29.4 ENE 17 22 1012.0 - 0.0 - - 10 - - - -
25/01:30pm 30.4 ENE 19 22 1012.3 - 0.0 - - 10 - - - -
25/01:00pm 30.0 ENE 17 21 1012.6 - 0.0 - - 10 - - - -
25/12:30pm 29.9 E 20 25 1012.8 - 0.0 - - 10 - - - -
25/12:00pm 29.5 E 21 26 1013.2 - 0.0 - - 10 - - - -
25/11:30am 28.9 E 21 26 1013.4 - 0.0 - - 10 - - - -
25/11:00am 28.7 E 22 27 1013.9 - 0.0 - - 10 - - - -
25/10:30am 28.2 E 23 29 1014.0 - 0.0 - - 10 - - - -
25/10:00am 27.3 E 23 28 1014.1 - 0.0 - - 10 - - - -
25/09:30am 26.9 E 21 28 1014.2 - 0.0 - - 10 - - - -
25/09:00am 25.9 E 23 30 1014.2 - 0.0 - - 10 - - - -
25/08:30am 25.5 E 22 29 1014.0 - 0.0 - - 10 - - - -
25/08:00am 24.2 ESE 18 22 1014.0 - 0.0 - - 10 - - - -
25/07:30am 24.1 ESE 14 19 1013.6 - 0.0 - - 10 - - - -
25/07:00am 23.5 ESE 14 18 1013.3 - 0.0 - - 10 - - - -
25/06:30am 22.8 E 13 16 1013.0 - 0.0 - Partly cloudy 10 - - - -
25/06:00am 22.9 E 15 17 1012.4 - 0.0 - - 10 - - - -
25/05:30am 23.7 E 16 23 1012.0 - 0.0 - - 10 - - - -
25/05:00am 24.3 ESE 15 19 1011.9 - 0.0 - Partly cloudy 10 - - - -
25/04:30am 24.8 ESE 15 22 1012.0 - 0.0 - Cloudy 10 - - - -
25/04:00am 24.0 E 12 15 1012.0 - 0.0 - Partly cloudy 10 - - - -
25/03:30am 23.6 E 12 14 1011.9 - 0.0 - Partly cloudy 10 - - - -
25/03:00am 24.1 E 11 14 1011.8 - 0.0 - Mostly cloudy 10 - - - -
25/02:30am 24.0 E 9 11 1012.0 - 0.0 - - 10 - - - -
25/02:00am 24.0 E 9 11 1012.1 - 0.0 - Partly cloudy 10 - - - -
25/01:30am 24.4 E 9 10 1012.2 - 0.0 - Cloudy 10 - - - -
25/01:00am 24.2 E 9 11 1012.5 - 0.0 - Cloudy 10 - - - -
25/12:30am 24.4 E 9 11 1012.7 - 0.0 - Cloudy 10 - - - -
25/12:00am 24.9 E 10 13 1012.7 - 0.0 - Partly cloudy 10 - - - -
 
Date/Time
WST
Temp

°C
Wind Pressure Rain
since 9am
mm
Weather Cloud Vis
km
Sea
Height
m
Swell
Dir
 
Speed
knots
Gust
knots
hPa Trend Height
m
Period
s
Dir
24/11:30pm 25.7 ESE 13 16 1012.9 - 0.0 - Partly cloudy 10 - - - -
24/11:00pm 25.9 ESE 13 16 1013.1 - 0.0 - Partly cloudy 10 - - - -
24/10:30pm 25.6 ESE 11 16 1013.0 - 0.0 - Partly cloudy 10 - - - -
24/10:00pm 25.6 ESE 11 14 1013.3 - 0.0 - Partly cloudy 10 - - - -
24/09:30pm 25.8 ESE 13 16 1013.2 - 0.0 - Partly cloudy 10 - - - -
24/09:00pm 25.8 ESE 12 16 1013.5 - 0.0 - Mostly clear 10 - - - -
24/08:30pm 25.9 ESE 13 17 1013.3 - 0.0 - - 10 - - - -
24/08:00pm 25.3 E 11 13 1013.2 - 0.0 - - 10 - - - -
24/07:30pm 25.6 E 11 13 1012.8 - 0.0 - Partly cloudy 10 - - - -
24/07:00pm 26.4 E 11 15 1012.4 - 0.0 - Partly cloudy 10 - - - -
24/06:30pm 27.5 ESE 12 15 1012.0 - 0.0 - Partly cloudy 10 - - - -
24/06:00pm 28.0 ESE 14 18 1011.8 - 0.0 - Mostly cloudy 10 - - - -
24/05:30pm 28.0 E 13 16 1011.6 - 0.0 - Partly cloudy 10 - - - -
24/05:00pm 28.4 E 14 17 1011.4 - 0.0 - Partly cloudy 10 - - - -
24/04:30pm 29.5 E 17 21 1011.1 - 0.0 - Partly cloudy 10 - - - -
24/04:00pm 29.9 E 14 18 1011.0 - 0.0 - Partly cloudy 10 - - - -
24/03:30pm 29.7 E 16 20 1011.1 - 0.0 - Cloudy 10 - - - -
24/03:00pm 29.5 E 17 20 1011.1 - 0.0 - Partly cloudy 10 - - - -
24/02:30pm 30.2 E 17 21 1011.0 - 0.0 - - 10 - - - -
24/02:00pm 30.4 E 16 22 1011.2 - 0.0 - - 10 - - - -
24/01:30pm 29.3 E 17 21 1011.4 - 0.0 - - 10 - - - -
24/01:00pm 29.3 E 17 22 1011.6 - 0.0 - - 10 - - - -
24/12:30pm 28.7 E 19 24 1012.0 - 0.0 - - 10 - - - -
24/12:00pm 28.2 E 18 22 1012.3 - 0.0 - - 10 - - - -
24/11:30am 27.2 E 19 24 1012.6 - 0.0 - - 10 - - - -
24/11:00am 27.2 E 18 23 1012.9 - 0.0 - - 10 - - - -
24/10:30am 26.4 ESE 19 24 1013.3 - 0.0 - - 10 - - - -
24/10:00am 26.0 ESE 19 23 1013.5 - 0.0 - - 10 - - - -
24/09:30am 24.9 ESE 19 24 1013.6 - 0.0 - - 10 - - - -
24/09:00am 24.4 ESE 20 25 1013.7 - 0.0 - - 10 - - - -
24/08:30am 24.2 ESE 16 20 1013.5 - 0.0 - - 10 - - - -
24/08:00am 23.2 ESE 19 23 1013.5 - 0.0 - - 10 - - - -
24/07:30am 22.4 ESE 16 21 1013.3 - 0.0 - Partly cloudy 10 - - - -
24/07:00am 22.0 ESE 17 24 1013.0 - 0.0 - Cloudy 10 - - - -
24/06:30am 21.9 ESE 15 21 1012.6 - 0.0 - Partly cloudy 10 - - - -
24/06:00am 22.2 ESE 14 19 1012.5 - 0.0 - Cloudy 10 - - - -
24/05:30am 22.6 ESE 15 19 1012.3 - 0.0 - Cloudy 10 - - - -
24/05:00am 22.8 ESE 17 24 1012.2 - 0.0 - Cloudy 10 - - - -
24/04:30am 23.0 ESE 14 20 1012.2 - 0.0 - Cloudy 10 - - - -
24/04:00am 23.1 ESE 16 20 1012.2 - 0.0 - Cloudy 10 - - - -
24/03:30am 23.2 ESE 13 19 1012.4 - 0.0 - Cloudy 10 - - - -
24/03:00am 23.3 ESE 13 17 1012.5 - 0.0 - Cloudy 10 - - - -
24/02:30am 23.3 ESE 15 19 1012.4 - 0.0 - Partly cloudy 10 - - - -
24/02:00am 22.8 E 10 15 1012.7 - 0.0 - Partly cloudy 10 - - - -
24/01:30am 22.9 E 10 11 1012.7 - 0.0 - Partly cloudy 10 - - - -
24/01:00am 22.8 E 8 10 1012.8 - 0.0 - Cloudy 10 - - - -
24/12:30am 23.2 E 9 11 1012.9 - 0.0 - Partly cloudy 10 - - - -
24/12:00am 23.4 E 9 11 1012.8 - 0.0 - Cloudy 10 - - - -
 
Date/Time
WST
Temp

°C
Wind Pressure Rain
since 9am
mm
Weather Cloud Vis
km
Sea
Height
m
Swell
Dir
 
Speed
knots
Gust
knots
hPa Trend Height
m
Period
s
Dir
23/11:30pm 23.2 E 6 8 1013.0 - 0.0 - Partly cloudy 10 - - - -
23/11:00pm 23.0 E 6 7 1013.0 - 0.0 - Partly cloudy 10 - - - -
23/10:30pm 23.0 ENE 7 8 1013.1 - 0.0 - Partly cloudy 10 - - - -
23/10:00pm 23.2 ENE 8 9 1013.2 - 0.0 - Cloudy 10 - - - -
23/09:30pm 23.3 ENE 7 8 1012.8 - 0.0 - Cloudy 10 - - - -

Other Formats:

Comma delimited format used in spreadsheet applications
http://www.bom.gov.au/fwo/IDW60701/IDW60701.95307.axf

JavaScript Object Notation format (JSON) in row-major order
http://www.bom.gov.au/fwo/IDW60701/IDW60701.95307.json